Time;durP1;ratioP1;P1;durP2;ratioP2;P2;SDS_P1;SDS_P2;PMS_P1;PMS_P2;Temp;Humidity;BMP_temperature;BMP_pressure;BME280_temperature;BME280_humidity;BME280_pressure;Samples;Min_cycle;Max_cycle;Signal;HPM_P1;HPM_P2
2021/12/29 00:01:52;;;;;;;24.60;16.57;;;;;;;8.23;100.00;93825.97;5092144;28;20204;-62
2021/12/29 00:04:18;;;;;;;27.63;16.90;;;;;;;8.30;100.00;93827.03;5091936;28;20177;-61
2021/12/29 00:06:43;;;;;;;23.43;14.50;;;;;;;8.36;100.00;93838.38;5092047;28;20227;-61
2021/12/29 00:09:09;;;;;;;23.27;14.43;;;;;;;8.38;100.00;93839.81;5090522;28;20176;-61
2021/12/29 00:11:38;;;;;;;20.93;13.57;;;;;;;8.46;100.00;93842.44;5091804;28;20279;-61
2021/12/29 00:14:04;;;;;;;23.27;14.47;;;;;;;8.37;100.00;93817.16;5091542;28;20268;-61
2021/12/29 00:16:34;;;;;;;21.57;11.97;;;;;;;8.57;100.00;93833.09;5007281;22;20322;-61
2021/12/29 00:19:00;;;;;;;21.53;12.23;;;;;;;8.58;100.00;93830.44;4989714;28;20184;-61
2021/12/29 00:21:26;;;;;;;19.47;12.70;;;;;;;8.48;100.00;93822.84;4989151;28;20596;-61
2021/12/29 00:23:58;;;;;;;20.03;12.23;;;;;;;8.40;100.00;93810.06;4989199;28;20175;-62
2021/12/29 00:26:25;;;;;;;21.30;12.73;;;;;;;8.45;100.00;93810.47;4989588;28;20344;-60
2021/12/29 00:28:50;;;;;;;19.97;11.60;;;;;;;8.57;100.00;93813.63;4989548;28;20225;-61
2021/12/29 00:31:16;;;;;;;18.57;11.93;;;;;;;8.40;100.00;93811.84;4989445;28;20215;-63
2021/12/29 00:33:41;;;;;;;18.43;11.37;;;;;;;8.38;100.00;93814.47;4989342;28;20180;-61
2021/12/29 00:36:07;;;;;;;19.73;12.30;;;;;;;8.39;100.00;93808.50;4989262;28;20687;-60
2021/12/29 00:38:32;;;;;;;19.60;11.20;;;;;;;8.37;100.00;93805.31;4989353;28;20586;-59
2021/12/29 00:40:58;;;;;;;19.50;10.97;;;;;;;8.41;100.00;93804.09;4994841;23;20701;-60
2021/12/29 00:43:23;;;;;;;22.67;13.03;;;;;;;8.41;100.00;93806.63;4989013;28;20172;-61
2021/12/29 00:45:50;;;;;;;19.43;11.93;;;;;;;8.44;100.00;93800.50;4989067;28;20622;-60
2021/12/29 00:48:17;;;;;;;17.90;11.27;;;;;;;8.54;100.00;93801.25;4989106;28;20325;-60
2021/12/29 00:50:43;;;;;;;18.73;11.90;;;;;;;8.62;100.00;93808.16;4989148;28;20204;-61
2021/12/29 00:53:09;;;;;;;23.87;11.93;;;;;;;8.59;100.00;93813.47;4988803;28;20628;-61
2021/12/29 00:55:35;;;;;;;22.70;12.00;;;;;;;8.60;100.00;93813.38;4988517;28;20214;-62
2021/12/29 00:58:02;;;;;;;19.40;11.70;;;;;;;8.67;100.00;93818.66;4987451;28;20264;-62
2021/12/29 01:00:28;;;;;;;19.37;12.67;;;;;;;8.79;100.00;93827.69;4990822;28;20199;-62
2021/12/29 01:02:53;;;;;;;19.70;12.13;;;;;;;8.84;100.00;93820.47;4992168;28;20267;-60
2021/12/29 01:05:20;;;;;;;18.63;11.37;;;;;;;8.94;100.00;93821.22;4992335;28;20268;-60
2021/12/29 01:07:49;;;;;;;19.83;11.60;;;;;;;9.00;100.00;93818.13;4992271;28;20184;-60
2021/12/29 01:10:15;;;;;;;20.67;13.17;;;;;;;9.28;100.00;93837.47;4992472;28;20759;-62
2021/12/29 01:12:50;;;;;;;17.13;11.53;;;;;;;9.20;100.00;93822.16;4992180;28;20253;-59
2021/12/29 01:15:24;;;;;;;18.20;11.87;;;;;;;9.07;100.00;93811.56;4992379;28;20191;-60
2021/12/29 01:17:49;;;;;;;20.43;11.90;;;;;;;8.95;100.00;93800.78;4990660;28;20699;-60
2021/12/29 01:20:15;;;;;;;19.27;12.47;;;;;;;8.91;100.00;93791.06;4992270;28;20555;-61
2021/12/29 01:22:40;;;;;;;20.77;12.77;;;;;;;8.93;100.00;93795.06;4992223;28;20649;-62
2021/12/29 01:25:07;;;;;;;20.60;11.90;;;;;;;8.93;100.00;93804.41;4990921;28;20637;-62
2021/12/29 01:27:34;;;;;;;18.30;12.17;;;;;;;8.88;100.00;93788.84;4992076;28;20204;-61
2021/12/29 01:30:00;;;;;;;18.83;12.67;;;;;;;8.87;100.00;93794.84;4990407;28;20253;-62
2021/12/29 01:32:25;;;;;;;18.13;11.37;;;;;;;9.07;100.00;93794.59;4991722;28;20200;-62
2021/12/29 01:34:50;;;;;;;17.43;12.10;;;;;;;9.12;100.00;93789.91;4992292;28;20218;-62
2021/12/29 01:37:17;;;;;;;20.87;12.43;;;;;;;9.06;100.00;93779.53;4974231;28;20220;-63
2021/12/29 01:39:42;;;;;;;20.40;12.07;;;;;;;8.93;100.00;93766.38;4992759;28;20195;-60
2021/12/29 01:42:08;;;;;;;19.37;12.20;;;;;;;8.91;100.00;93776.69;4991708;28;20204;-59
2021/12/29 01:44:33;;;;;;;20.13;12.27;;;;;;;9.07;100.00;93776.06;4990551;28;20191;-63
2021/12/29 01:46:59;;;;;;;20.17;11.77;;;;;;;9.11;100.00;93778.16;4990257;28;20214;-63
2021/12/29 01:49:25;;;;;;;20.17;12.50;;;;;;;9.02;100.00;93775.69;4991812;28;20252;-60
2021/12/29 01:52:01;;;;;;;18.33;12.50;;;;;;;8.95;100.00;93769.56;4990453;28;20200;-61
2021/12/29 01:54:28;;;;;;;21.83;12.20;;;;;;;8.97;100.00;93775.31;4991970;28;20184;-62
2021/12/29 01:56:58;;;;;;;19.13;11.43;;;;;;;8.91;100.00;93755.59;4991353;28;20213;-60
2021/12/29 01:59:25;;;;;;;20.17;11.97;;;;;;;9.02;100.00;93763.03;4991819;28;20203;-61
2021/12/29 02:01:50;;;;;;;18.23;10.93;;;;;;;9.06;100.00;93756.72;4990169;28;20291;-62
2021/12/29 02:04:16;;;;;;;21.10;11.73;;;;;;;9.14;100.00;93759.34;4991563;28;20615;-62
2021/12/29 02:06:42;;;;;;;22.00;11.87;;;;;;;9.09;100.00;93748.84;4991289;28;20261;-61
2021/12/29 02:09:08;;;;;;;22.20;12.73;;;;;;;8.92;100.00;93727.59;4991390;28;20531;-62
2021/12/29 02:11:37;;;;;;;19.83;11.73;;;;;;;8.90;100.00;93729.47;4991214;28;20208;-62
2021/12/29 02:14:06;;;;;;;16.53;10.73;;;;;;;8.85;100.00;93718.97;4991378;28;20552;-62
2021/12/29 02:16:33;;;;;;;18.90;11.10;;;;;;;8.69;100.00;93717.97;4991077;28;20253;-63
2021/12/29 02:19:02;;;;;;;19.00;12.13;;;;;;;8.90;100.00;93721.06;4991319;28;20685;-60
2021/12/29 02:21:29;;;;;;;18.80;11.50;;;;;;;8.82;100.00;93714.19;4989738;28;20200;-61
2021/12/29 02:26:33;;;;;;;18.67;11.50;;;;;;;8.91;100.00;93705.72;5093554;28;20203;-59
2021/12/29 02:29:01;;;;;;;19.33;11.13;;;;;;;8.88;100.00;93695.88;5093569;28;20217;-61
2021/12/29 02:31:28;;;;;;;19.27;10.90;;;;;;;8.65;100.00;93676.13;5093746;28;20197;-60
2021/12/29 02:33:54;;;;;;;19.17;12.27;;;;;;;8.56;100.00;93679.53;5093592;28;20710;-62
2021/12/29 02:36:21;;;;;;;18.33;11.80;;;;;;;8.60;100.00;93678.31;5093440;28;20219;-59
2021/12/29 02:38:51;;;;;;;17.87;10.87;;;;;;;8.61;100.00;93684.97;5093308;28;20255;-61
2021/12/29 02:41:17;;;;;;;17.60;10.67;;;;;;;8.62;100.00;93684.84;5093529;28;20200;-62
2021/12/29 02:43:44;;;;;;;19.97;11.37;;;;;;;8.58;100.00;93678.47;5093533;28;20239;-62
2021/12/29 02:46:13;;;;;;;19.67;11.47;;;;;;;8.64;100.00;93675.38;5093267;28;20273;-62
2021/12/29 02:48:46;;;;;;;17.57;10.50;;;;;;;8.72;100.00;93687.31;5093354;28;20183;-61
2021/12/29 02:51:11;;;;;;;19.10;10.20;;;;;;;8.68;100.00;93680.94;5093252;28;20196;-61
2021/12/29 02:53:37;;;;;;;16.47;10.20;;;;;;;8.69;100.00;93675.72;5092045;28;20641;-61
2021/12/29 02:56:04;;;;;;;18.07;11.23;;;;;;;8.79;100.00;93690.84;5093056;28;20698;-61
2021/12/29 02:58:31;;;;;;;19.73;10.70;;;;;;;8.93;100.00;93690.34;5093619;28;20180;-61
2021/12/29 03:00:58;;;;;;;16.37;10.53;;;;;;;8.85;100.00;93685.22;5092943;28;20271;-60
2021/12/29 03:03:36;;;;;;;19.37;11.03;;;;;;;8.87;100.00;93685.88;5091678;28;20187;-61
2021/12/29 03:06:09;;;;;;;19.13;11.43;;;;;;;8.88;100.00;93695.06;5093105;28;20227;-62
2021/12/29 03:08:35;;;;;;;19.73;11.50;;;;;;;8.87;100.00;93688.41;5093321;28;20209;-62
2021/12/29 03:11:02;;;;;;;24.00;12.63;;;;;;;8.92;100.00;93684.53;5093074;28;20725;-61
2021/12/29 03:13:31;;;;;;;22.00;13.50;;;;;;;8.91;100.00;93675.31;5093343;28;20192;-63
2021/12/29 03:15:57;;;;;;;20.43;12.27;;;;;;;9.11;100.00;93681.84;5092445;28;20725;-59
2021/12/29 03:18:23;;;;;;;18.43;12.37;;;;;;;9.02;100.00;93671.78;5093083;28;20180;-62
2021/12/29 03:20:48;;;;;;;24.07;13.87;;;;;;;9.06;100.00;93676.41;5092578;28;20559;-60
2021/12/29 03:23:15;;;;;;;23.70;13.93;;;;;;;8.79;100.00;93668.84;5092487;28;20203;-60
2021/12/29 03:25:41;;;;;;;21.57;13.03;;;;;;;8.71;100.00;93658.63;5092512;28;20192;-61
2021/12/29 03:28:07;;;;;;;20.47;12.97;;;;;;;8.69;100.00;93668.13;5092825;28;20272;-61
2021/12/29 03:30:39;;;;;;;23.63;13.33;;;;;;;8.84;100.00;93660.81;5092333;28;20211;-61
2021/12/29 03:33:06;;;;;;;22.40;13.70;;;;;;;8.79;100.00;93671.38;5092926;28;20181;-62
2021/12/29 03:35:54;;;;;;;21.60;12.90;;;;;;;8.76;100.00;93658.22;5090997;28;20303;-61
2021/12/29 03:38:25;;;;;;;24.93;13.83;;;;;;;8.83;100.00;93656.69;5092886;28;20191;-60
2021/12/29 03:40:52;;;;;;;25.07;14.93;;;;;;;8.84;100.00;93663.38;5090700;28;20204;-62
2021/12/29 03:43:18;;;;;;;23.23;13.83;;;;;;;8.97;100.00;93663.78;5092888;28;20190;-61
2021/12/29 03:45:45;;;;;;;24.63;14.43;;;;;;;8.81;100.00;93663.63;5092189;28;20279;-61
2021/12/29 03:48:12;;;;;;;22.47;12.80;;;;;;;8.69;100.00;93655.44;5092655;28;20203;-61
2021/12/29 03:50:38;;;;;;;23.20;13.83;;;;;;;8.72;100.00;93652.66;5092132;28;20649;-61
2021/12/29 03:53:05;;;;;;;25.13;13.13;;;;;;;8.43;100.00;93652.81;5092452;28;20184;-62
2021/12/29 03:55:31;;;;;;;27.17;15.97;;;;;;;8.25;100.00;93651.97;5091930;28;20580;-61
2021/12/29 03:57:57;;;;;;;30.53;17.03;;;;;;;7.81;100.00;93662.78;5091966;28;20226;-60
2021/12/29 04:00:23;;;;;;;29.83;17.00;;;;;;;7.85;100.00;93643.06;5090703;28;20710;-60
2021/12/29 04:02:49;;;;;;;27.50;16.90;;;;;;;8.29;100.00;93655.00;5092233;28;20184;-61
2021/12/29 04:05:20;;;;;;;30.47;18.47;;;;;;;8.02;100.00;93650.69;5091783;28;20179;-62
2021/12/29 04:07:47;;;;;;;29.83;18.10;;;;;;;7.90;100.00;93651.03;5092261;28;20525;-61
2021/12/29 04:10:13;;;;;;;30.60;18.77;;;;;;;8.04;100.00;93643.75;5091731;28;20706;-62
2021/12/29 04:12:39;;;;;;;35.50;19.53;;;;;;;7.98;100.00;93648.63;5092095;28;20263;-58
2021/12/29 04:15:07;;;;;;;34.63;18.53;;;;;;;8.01;100.00;93643.25;5091994;28;20175;-59
2021/12/29 04:17:38;;;;;;;31.30;18.40;;;;;;;8.06;100.00;93649.50;5091731;28;20580;-60
2021/12/29 04:22:58;;;;;;;29.40;17.73;;;;;;;8.24;100.00;93649.56;5092452;28;20665;-62
2021/12/29 04:25:25;;;;;;;33.53;19.23;;;;;;;8.22;100.00;93649.69;5091411;28;20710;-62
2021/12/29 04:27:55;;;;;;;33.37;19.53;;;;;;;7.92;100.00;93637.28;5092410;28;20195;-61
2021/12/29 04:30:22;;;;;;;31.17;19.23;;;;;;;7.62;100.00;93642.59;5092017;28;20156;-60
2021/12/29 04:32:47;;;;;;;36.83;22.50;;;;;;;7.72;100.00;93630.69;5091980;28;20237;-59
2021/12/29 04:35:14;;;;;;;39.60;22.23;;;;;;;7.72;100.00;93630.69;5093715;28;20188;-61
2021/12/29 04:37:39;;;;;;;33.10;21.17;;;;;;;7.89;100.00;93637.59;5096539;28;20218;-60
2021/12/29 04:40:07;;;;;;;38.43;20.97;;;;;;;7.72;100.00;93643.34;5095819;28;20176;-62
2021/12/29 04:42:33;;;;;;;36.33;20.97;;;;;;;7.58;100.00;93647.13;5094711;28;20235;-60
2021/12/29 04:44:58;;;;;;;34.00;21.10;;;;;;;7.75;100.00;93652.41;5096298;28;20206;-62
2021/12/29 04:47:29;;;;;;;35.17;20.93;;;;;;;7.83;100.00;93644.94;5094608;28;20204;-62
2021/12/29 04:49:56;;;;;;;36.73;20.93;;;;;;;7.49;100.00;93652.97;5095574;28;20540;-60
2021/12/29 04:52:22;;;;;;;36.47;22.73;;;;;;;7.20;100.00;93666.59;5095584;28;20611;-62
2021/12/29 04:54:47;;;;;;;42.87;23.37;;;;;;;7.12;100.00;93669.81;5095609;28;20187;-62
2021/12/29 04:57:15;;;;;;;36.17;22.70;;;;;;;7.06;100.00;93667.81;5095613;28;20594;-62
2021/12/29 04:59:41;;;;;;;38.93;21.57;;;;;;;7.15;100.00;93673.81;5094110;28;20180;-60
2021/12/29 05:02:06;;;;;;;37.00;22.23;;;;;;;7.06;100.00;93659.44;5095320;28;20200;-62
2021/12/29 05:04:34;;;;;;;41.03;22.33;;;;;;;7.13;100.00;93661.28;5094052;28;20179;-61
2021/12/29 05:09:46;;;;;;;36.23;20.50;;;;;;;6.95;100.00;93667.94;5095468;28;20688;-62
2021/12/29 05:12:12;;;;;;;36.53;20.93;;;;;;;7.07;100.00;93668.63;5094938;28;20207;-61
2021/12/29 05:14:38;;;;;;;35.97;20.60;;;;;;;6.87;100.00;93669.53;5093553;28;20656;-62
2021/12/29 05:17:05;;;;;;;38.83;21.90;;;;;;;6.84;100.00;93662.22;5095059;28;20224;-63
2021/12/29 05:19:32;;;;;;;35.00;21.27;;;;;;;6.93;100.00;93661.44;5095183;28;20187;-62
2021/12/29 05:21:58;;;;;;;35.33;21.30;;;;;;;7.07;100.00;93661.81;5093305;28;20211;-61
2021/12/29 05:24:24;;;;;;;34.70;20.90;;;;;;;6.89;100.00;93665.94;5094756;28;20246;-61
2021/12/29 05:26:50;;;;;;;38.00;20.00;;;;;;;6.64;100.00;93671.50;5094789;28;20665;-62
2021/12/29 05:29:15;;;;;;;36.07;21.00;;;;;;;6.58;100.00;93674.56;5093707;28;20174;-61
2021/12/29 05:31:41;;;;;;;40.53;21.83;;;;;;;6.61;100.00;93667.50;5094965;28;20204;-62
2021/12/29 05:34:06;;;;;;;35.43;20.03;;;;;;;6.72;100.00;93667.41;5095185;28;20567;-63
2021/12/29 05:36:32;;;;;;;35.03;20.53;;;;;;;6.71;100.00;93675.88;5076252;28;20259;-61
2021/12/29 05:38:57;;;;;;;34.33;20.57;;;;;;;6.61;100.00;93670.03;5094748;28;20265;-63
2021/12/29 05:41:23;;;;;;;32.97;19.20;;;;;;;6.78;100.00;93679.50;5094185;28;20325;-63
2021/12/29 05:43:49;;;;;;;33.57;21.17;;;;;;;6.79;100.00;93672.69;5094606;28;20203;-62
2021/12/29 05:46:15;;;;;;;40.13;21.27;;;;;;;6.83;100.00;93679.09;5093737;28;20196;-61
2021/12/29 05:48:41;;;;;;;35.30;20.17;;;;;;;6.75;100.00;93684.81;5094429;28;20179;-62
2021/12/29 05:51:07;;;;;;;34.87;19.43;;;;;;;6.97;100.00;93686.28;5094330;28;20199;-61
2021/12/29 05:53:32;;;;;;;38.20;19.50;;;;;;;7.19;100.00;93687.75;5095240;28;20184;-62
2021/12/29 05:55:58;;;;;;;31.47;18.70;;;;;;;7.53;100.00;93683.88;5094200;28;20230;-63
2021/12/29 05:58:23;;;;;;;31.20;17.97;;;;;;;7.73;100.00;93687.97;5094731;28;20211;-62
2021/12/29 06:00:49;;;;;;;32.43;17.30;;;;;;;7.76;100.00;93682.63;5094264;28;20199;-62
2021/12/29 06:03:15;;;;;;;36.93;20.23;;;;;;;7.75;100.00;93692.88;5094374;28;20621;-62
2021/12/29 06:05:40;;;;;;;34.37;20.47;;;;;;;7.88;100.00;93689.09;5092598;28;20262;-60
2021/12/29 06:08:07;;;;;;;32.43;19.80;;;;;;;7.89;100.00;93689.91;5094301;28;20189;-60
2021/12/29 06:10:33;;;;;;;33.33;20.63;;;;;;;7.76;100.00;93684.38;5092445;28;20200;-61
2021/12/29 06:12:58;;;;;;;36.47;22.53;;;;;;;7.63;100.00;93682.91;5094513;28;20460;-61
2021/12/29 06:15:24;;;;;;;34.27;19.33;;;;;;;7.90;100.00;93687.22;5092546;28;20199;-61
2021/12/29 06:17:49;;;;;;;38.60;20.47;;;;;;;8.14;100.00;93690.06;5094277;28;20295;-61
2021/12/29 06:20:15;;;;;;;35.80;19.30;;;;;;;8.18;100.00;93688.88;5092846;28;20176;-61
2021/12/29 06:22:41;;;;;;;38.03;21.13;;;;;;;8.14;100.00;93685.03;5093926;28;20535;-61
2021/12/29 06:25:10;;;;;;;31.90;21.73;;;;;;;8.10;100.00;93686.22;5093552;28;20187;-60
2021/12/29 06:27:36;;;;;;;41.23;22.13;;;;;;;8.07;100.00;93686.53;5093774;28;20223;-61
2021/12/29 06:30:04;;;;;;;39.27;21.60;;;;;;;8.04;100.00;93699.44;5094026;28;20180;-61
2021/12/29 06:32:29;;;;;;;34.17;20.27;;;;;;;7.93;100.00;93702.16;5092287;28;20227;-59
2021/12/29 06:34:55;;;;;;;38.30;20.20;;;;;;;7.90;100.00;93692.28;5092430;28;20626;-60
2021/12/29 06:37:21;;;;;;;36.70;20.90;;;;;;;8.08;100.00;93705.81;5096132;28;20295;-61
2021/12/29 06:39:47;;;;;;;33.87;19.67;;;;;;;8.12;100.00;93703.84;5096346;28;20176;-61
2021/12/29 06:42:15;;;;;;;36.53;20.90;;;;;;;8.18;100.00;93705.81;5093526;28;20269;-58
2021/12/29 06:44:41;;;;;;;36.53;20.67;;;;;;;8.15;100.00;93706.88;5093441;28;20181;-61
2021/12/29 06:47:07;;;;;;;33.27;19.93;;;;;;;8.02;100.00;93698.78;5092893;28;20214;-60
2021/12/29 06:49:33;;;;;;;35.70;19.27;;;;;;;8.05;100.00;93701.06;5091842;28;20186;-62
2021/12/29 06:52:00;;;;;;;33.30;19.67;;;;;;;8.13;100.00;93702.88;5091920;28;20279;-62
2021/12/29 06:54:25;;;;;;;34.47;20.20;;;;;;;8.37;100.00;93709.09;5093260;28;20232;-59
2021/12/29 06:56:51;;;;;;;31.57;20.23;;;;;;;8.38;100.00;93707.34;5092197;28;20323;-61
2021/12/29 06:59:16;;;;;;;37.10;20.30;;;;;;;8.57;100.00;93711.50;5093547;28;20195;-61
2021/12/29 07:01:42;;;;;;;32.17;20.13;;;;;;;8.54;100.00;93702.47;5094347;28;20226;-61
2021/12/29 07:04:07;;;;;;;37.60;19.70;;;;;;;8.53;100.00;93711.00;5092829;28;20258;-62
2021/12/29 07:06:33;;;;;;;32.50;19.20;;;;;;;8.48;100.00;93706.34;5092758;28;20192;-61
2021/12/29 07:08:58;;;;;;;32.90;19.90;;;;;;;8.32;100.00;93703.63;5092711;28;20711;-60
2021/12/29 07:11:24;;;;;;;33.30;18.90;;;;;;;8.24;100.00;93706.03;5092634;28;20196;-62
2021/12/29 07:13:49;;;;;;;33.33;18.80;;;;;;;8.30;100.00;93705.50;5091339;28;20501;-62
2021/12/29 07:16:15;;;;;;;31.77;19.17;;;;;;;8.50;100.00;93718.09;5095274;28;20211;-61
2021/12/29 07:18:41;;;;;;;33.10;19.07;;;;;;;8.51;100.00;93707.00;5095155;28;20215;-61
2021/12/29 07:21:06;;;;;;;30.30;18.73;;;;;;;8.49;100.00;93719.81;5092561;28;20192;-62
2021/12/29 07:23:32;;;;;;;33.27;19.27;;;;;;;8.44;100.00;93717.69;5093067;28;20215;-61
2021/12/29 07:26:03;;;;;;;33.07;19.67;;;;;;;8.56;100.00;93720.06;5093488;28;20257;-62
2021/12/29 07:28:38;;;;;;;30.03;19.13;;;;;;;8.12;100.00;93722.31;5092107;28;20561;-62
2021/12/29 07:31:04;;;;;;;37.40;21.47;;;;;;;7.76;100.00;93720.56;5075405;28;20207;-61
2021/12/29 07:33:29;;;;;;;36.57;22.27;;;;;;;7.46;100.00;93723.25;5091023;28;20196;-63
2021/12/29 07:35:55;;;;;;;45.17;23.53;;;;;;;7.27;100.00;93723.28;5092102;28;20192;-61
2021/12/29 07:38:20;;;;;;;40.93;22.67;;;;;;;7.33;100.00;93727.81;5092899;28;20258;-61
2021/12/29 07:40:46;;;;;;;41.73;23.30;;;;;;;7.31;100.00;93727.91;5066306;22;20776;-62
2021/12/29 07:43:11;;;;;;;42.27;22.70;;;;;;;7.29;100.00;93724.72;4970807;28;20189;-59
2021/12/29 07:45:37;;;;;;;35.17;22.07;;;;;;;7.19;100.00;93734.03;4970544;28;20216;-61
2021/12/29 07:48:04;;;;;;;40.27;21.03;;;;;;;7.17;100.00;93727.53;4970234;28;20199;-62
2021/12/29 07:50:30;;;;;;;42.83;24.17;;;;;;;7.10;100.00;93728.97;4970754;28;20282;-62
2021/12/29 07:52:55;;;;;;;40.53;20.73;;;;;;;7.31;100.00;93724.59;4970217;28;20731;-62
2021/12/29 07:55:21;;;;;;;41.83;22.40;;;;;;;7.55;100.00;93728.28;4970653;28;20214;-62
2021/12/29 07:57:48;;;;;;;38.53;21.60;;;;;;;7.47;100.00;93729.94;4970195;28;20208;-62
2021/12/29 08:00:15;;;;;;;41.60;21.33;;;;;;;7.56;100.00;93734.16;4969031;28;20235;-62
2021/12/29 08:02:43;;;;;;;38.67;21.70;;;;;;;7.50;100.00;93732.16;4970375;28;20173;-61
2021/12/29 08:05:10;;;;;;;36.17;22.93;;;;;;;7.56;100.00;93734.16;4970313;28;20710;-62
2021/12/29 08:07:36;;;;;;;47.93;23.87;;;;;;;7.65;100.00;93733.38;4976813;23;20216;-62
2021/12/29 08:10:03;;;;;;;45.30;23.90;;;;;;;7.49;100.00;93738.16;4968514;28;20218;-63
2021/12/29 08:12:28;;;;;;;46.37;24.83;;;;;;;7.51;100.00;93741.38;4970235;28;20200;-63
2021/12/29 08:14:54;;;;;;;37.63;23.37;;;;;;;7.60;100.00;93733.75;4970063;28;20230;-61
2021/12/29 08:17:19;;;;;;;43.87;24.60;;;;;;;7.83;100.00;93736.78;5034418;22;20259;-61
2021/12/29 08:19:45;;;;;;;42.60;23.00;;;;;;;7.98;100.00;93722.00;5090386;28;20180;-62
2021/12/29 08:22:11;;;;;;;42.10;22.70;;;;;;;8.25;100.00;93727.13;5092062;28;20204;-63
2021/12/29 08:24:37;;;;;;;43.27;23.43;;;;;;;8.26;100.00;93729.50;5091814;28;20183;-62
2021/12/29 08:27:04;;;;;;;44.67;22.17;;;;;;;8.21;100.00;93725.75;5091831;28;20208;-62
2021/12/29 08:29:29;;;;;;;45.43;25.03;;;;;;;8.14;100.00;93720.44;5091562;28;20172;-62
2021/12/29 08:31:57;;;;;;;45.90;24.27;;;;;;;8.23;100.00;93728.97;5035930;22;20770;-64
2021/12/29 08:34:23;;;;;;;41.63;23.53;;;;;;;8.26;100.00;93726.97;4989029;28;20180;-61
2021/12/29 08:36:49;;;;;;;43.37;24.20;;;;;;;8.33;100.00;93727.22;4989366;28;20324;-61
2021/12/29 08:39:14;;;;;;;41.87;23.63;;;;;;;8.41;100.00;93723.06;4989052;28;20645;-59
2021/12/29 08:41:40;;;;;;;39.13;24.37;;;;;;;8.49;100.00;93724.88;4989376;28;20220;-61
2021/12/29 08:44:05;;;;;;;41.63;23.20;;;;;;;8.51;100.00;93722.19;4989425;28;20187;-65
2021/12/29 08:46:31;;;;;;;44.90;23.97;;;;;;;8.72;100.00;93725.31;4994349;23;20714;-61
2021/12/29 08:48:57;;;;;;;38.40;23.47;;;;;;;8.73;100.00;93719.28;4989158;28;20191;-62
2021/12/29 08:51:23;;;;;;;39.87;23.57;;;;;;;8.64;100.00;93722.69;4989088;28;20287;-61
2021/12/29 08:53:48;;;;;;;35.00;21.57;;;;;;;8.61;100.00;93726.28;4988827;28;20766;-62
2021/12/29 08:56:16;;;;;;;39.23;21.47;;;;;;;8.78;100.00;93724.75;4988717;28;20667;-61
2021/12/29 08:58:42;;;;;;;37.47;20.57;;;;;;;8.80;100.00;93727.94;4988913;28;20641;-60
2021/12/29 09:01:08;;;;;;;34.40;20.93;;;;;;;8.73;100.00;93721.81;4988889;28;20653;-62
2021/12/29 09:03:34;;;;;;;34.77;20.40;;;;;;;8.67;100.00;93725.72;4988987;28;20214;-62
2021/12/29 09:05:59;;;;;;;36.33;21.97;;;;;;;8.74;100.00;93720.91;4987552;28;20203;-62
2021/12/29 09:08:25;;;;;;;40.37;22.30;;;;;;;8.87;100.00;93721.34;4987430;28;20224;-61
2021/12/29 09:10:50;;;;;;;34.00;21.07;;;;;;;9.01;100.00;93715.78;4988514;28;20215;-62
2021/12/29 09:13:16;;;;;;;37.37;21.90;;;;;;;8.96;100.00;93713.69;4987390;28;20195;-64
2021/12/29 09:15:42;;;;;;;34.50;21.10;;;;;;;8.82;100.00;93700.72;4988625;28;20215;-64
2021/12/29 09:18:08;;;;;;;35.30;21.73;;;;;;;8.79;100.00;93706.84;4988468;28;20208;-62
2021/12/29 09:20:37;;;;;;;39.47;22.17;;;;;;;8.76;100.00;93703.81;4990555;28;20261;-61
2021/12/29 09:23:06;;;;;;;35.07;20.60;;;;;;;8.77;100.00;93697.81;4991623;28;20238;-63
2021/12/29 09:25:32;;;;;;;35.70;21.00;;;;;;;9.00;100.00;93688.84;4991732;28;20199;-62
2021/12/29 09:27:58;;;;;;;33.93;20.90;;;;;;;8.98;100.00;93693.28;4991707;28;20192;-61
2021/12/29 09:30:31;;;;;;;34.40;19.43;;;;;;;9.03;100.00;93688.59;4991534;28;20233;-61
2021/12/29 09:32:56;;;;;;;33.63;21.13;;;;;;;8.88;100.00;93687.47;4992017;28;20176;-61
2021/12/29 09:35:23;;;;;;;34.47;20.03;;;;;;;8.91;100.00;93677.03;4991722;28;20180;-61
2021/12/29 09:37:50;;;;;;;29.17;18.60;;;;;;;9.12;100.00;93680.09;4991482;28;20219;-61
2021/12/29 09:40:18;;;;;;;28.00;18.13;;;;;;;9.16;100.00;93668.72;4991415;28;20184;-64
2021/12/29 09:42:45;;;;;;;26.27;17.33;;;;;;;9.04;100.00;93665.63;4974399;28;20215;-59
2021/12/29 09:45:11;;;;;;;30.57;17.90;;;;;;;9.01;100.00;93665.09;4991464;28;20561;-60
2021/12/29 09:47:37;;;;;;;31.10;17.80;;;;;;;9.10;100.00;93669.31;4991587;28;20226;-60
2021/12/29 09:50:05;;;;;;;23.90;14.80;;;;;;;9.07;100.00;93667.84;4991897;28;20270;-60
2021/12/29 09:52:33;;;;;;;26.30;16.47;;;;;;;9.13;100.00;93658.88;4990581;28;20272;-61
2021/12/29 09:55:04;;;;;;;30.57;15.90;;;;;;;9.16;100.00;93659.38;4991738;28;20543;-62
2021/12/29 09:57:29;;;;;;;28.57;16.47;;;;;;;9.16;100.00;93648.44;4991967;28;20227;-61
2021/12/29 09:59:55;;;;;;;26.43;15.80;;;;;;;9.14;100.00;93651.13;4991486;28;20295;-62
2021/12/29 10:02:21;;;;;;;25.10;16.23;;;;;;;9.13;100.00;93652.06;4991892;28;20200;-63
2021/12/29 10:04:46;;;;;;;25.60;16.87;;;;;;;9.18;100.00;93647.38;4989990;28;20623;-61
2021/12/29 10:07:18;;;;;;;28.20;16.23;;;;;;;9.35;100.00;93639.88;4991692;28;20204;-62
2021/12/29 10:09:44;;;;;;;20.80;14.07;;;;;;;9.40;100.00;93642.75;4991168;28;20194;-62
2021/12/29 10:12:17;;;;;;;21.73;14.53;;;;;;;9.40;100.00;93630.88;4990033;28;20670;-61
2021/12/29 10:14:51;;;;;;;24.00;14.70;;;;;;;9.31;100.00;93636.84;4991284;28;20684;-61
2021/12/29 10:17:17;;;;;;;30.50;15.77;;;;;;;9.27;100.00;93630.47;4991629;28;20295;-62
2021/12/29 10:19:44;;;;;;;27.80;14.83;;;;;;;9.38;100.00;93625.16;4991158;28;20237;-61
2021/12/29 10:22:20;;;;;;;18.97;13.57;;;;;;;9.32;100.00;93615.59;5051150;22;20261;-63
2021/12/29 10:24:45;;;;;;;19.37;13.47;;;;;;;9.46;100.00;93614.25;5093635;28;20205;-61
2021/12/29 10:27:18;;;;;;;22.17;13.43;;;;;;;9.39;100.00;93623.41;5094100;28;20204;-61
2021/12/29 10:29:44;;;;;;;23.17;13.97;;;;;;;9.31;100.00;93616.56;5093596;28;20169;-63
2021/12/29 10:32:09;;;;;;;22.57;14.10;;;;;;;9.21;100.00;93615.84;5024452;22;20228;-62
2021/12/29 10:34:35;;;;;;;21.23;13.67;;;;;;;9.28;100.00;93611.78;4990812;28;20172;-61
2021/12/29 10:37:04;;;;;;;18.40;12.73;;;;;;;9.34;100.00;93608.66;4991295;28;20227;-61
2021/12/29 10:39:36;;;;;;;17.40;12.60;;;;;;;9.41;100.00;93612.19;4989770;28;20180;-63
2021/12/29 10:42:06;;;;;;;17.30;11.90;;;;;;;9.53;100.00;93605.94;4991101;28;20246;-61
2021/12/29 10:44:44;;;;;;;18.90;11.80;;;;;;;9.56;100.00;93605.63;4990840;28;20196;-61
2021/12/29 10:47:17;;;;;;;19.93;12.03;;;;;;;9.59;100.00;93604.53;4991144;28;20223;-61
2021/12/29 10:49:50;;;;;;;16.37;11.73;;;;;;;9.59;100.00;93599.44;4990722;28;20645;-61
2021/12/29 10:52:26;;;;;;;18.43;11.97;;;;;;;9.63;100.00;93606.63;4991144;28;20215;-63
2021/12/29 10:54:52;;;;;;;20.80;12.37;;;;;;;9.73;100.00;93607.31;4989641;28;20282;-61
2021/12/29 10:57:18;;;;;;;20.57;13.07;;;;;;;9.80;100.00;93598.13;4991089;28;20294;-60
2021/12/29 10:59:43;;;;;;;19.93;12.00;;;;;;;9.85;100.00;93601.03;4989732;28;20210;-64
2021/12/29 11:02:10;;;;;;;20.90;12.37;;;;;;;9.85;100.00;93595.97;4990640;28;20634;-64
2021/12/29 11:04:37;;;;;;;18.37;11.83;;;;;;;10.02;100.00;93592.53;4990542;28;20198;-61
2021/12/29 11:07:04;;;;;;;17.17;11.80;;;;;;;10.06;100.00;93593.81;4990699;28;20234;-63
2021/12/29 11:09:35;;;;;;;18.77;11.77;;;;;;;10.20;100.00;93592.47;4990711;28;20675;-61
2021/12/29 11:12:09;;;;;;;17.70;11.73;;;;;;;10.04;100.00;93590.63;4990800;28;20231;-62
2021/12/29 11:14:37;;;;;;;18.57;13.30;;;;;;;10.03;100.00;93594.13;4988947;28;20203;-64
2021/12/29 11:17:09;;;;;;;17.53;12.23;;;;;;;10.02;100.00;93587.44;4989150;28;20223;-61
2021/12/29 11:19:37;;;;;;;19.47;13.40;;;;;;;10.09;100.00;93582.56;4990177;28;20192;-64
2021/12/29 11:22:09;;;;;;;18.27;12.53;;;;;;;10.22;100.00;93587.25;4988977;28;20247;-61
2021/12/29 11:24:35;;;;;;;22.23;13.47;;;;;;;10.35;100.00;93577.44;4990234;28;20636;-62